Time;durP1;ratioP1;P1;durP2;ratioP2;P2;SDS_P1;SDS_P2;PMS_P1;PMS_P2;Temp;Humidity;BMP_temperature;BMP_pressure;BME280_temperature;BME280_humidity;BME280_pressure;Samples;Min_cycle;Max_cycle;Signal;HPM_P1;HPM_P2
2023/01/07 00:01:46;;;;;;;0.32;0.32;;;;;;;7.42;100.00;98743.72;15307174;19;20014;-79
2023/01/07 00:07:11;;;;;;;0.50;0.50;;;;;;;7.39;100.00;98743.00;15303250;19;20010;-79
2023/01/07 00:12:36;;;;;;;0.30;0.30;;;;;;;7.34;100.00;98753.28;15301934;19;20015;-80
2023/01/07 00:18:03;;;;;;;0.40;0.40;;;;;;;7.31;100.00;98734.78;15329957;19;20033;-79
2023/01/07 00:23:29;;;;;;;1.20;0.50;;;;;;;7.26;100.00;98731.63;15321264;19;20018;-79
2023/01/07 00:28:55;;;;;;;0.60;0.60;;;;;;;7.17;100.00;98724.41;15323104;19;20691;-79
2023/01/07 00:34:23;;;;;;;0.43;0.35;;;;;;;7.12;100.00;98723.94;15316740;19;20011;-79
2023/01/07 00:39:47;;;;;;;0.40;0.40;;;;;;;7.15;100.00;98726.34;15303460;19;20365;-79
2023/01/07 00:45:13;;;;;;;0.40;0.40;;;;;;;6.99;100.00;98726.81;15296428;19;20031;-78
2023/01/07 00:50:42;;;;;;;1.00;0.43;;;;;;;7.03;100.00;98721.06;15308211;19;20480;-78
2023/01/07 00:56:08;;;;;;;0.52;0.38;;;;;;;7.02;100.00;98738.13;15309058;19;20019;-79
2023/01/07 01:01:39;;;;;;;0.40;0.40;;;;;;;7.02;100.00;98743.47;15310165;19;20022;-79
2023/01/07 01:07:07;;;;;;;0.40;0.30;;;;;;;7.00;100.00;98745.44;15327498;19;21119;-79
2023/01/07 01:12:34;;;;;;;0.85;0.30;;;;;;;7.00;100.00;98749.94;15289481;19;20014;-78
2023/01/07 01:17:59;;;;;;;0.70;0.30;;;;;;;7.18;100.00;98753.72;15305054;19;20082;-79
2023/01/07 01:23:26;;;;;;;1.23;0.30;;;;;;;7.14;100.00;98746.09;15305144;19;20003;-79
2023/01/07 01:28:51;;;;;;;0.40;0.30;;;;;;;7.15;100.00;98742.44;15307796;19;20022;-78
2023/01/07 01:34:17;;;;;;;0.52;0.30;;;;;;;7.32;100.00;98757.06;15309367;19;20010;-80
2023/01/07 01:39:44;;;;;;;0.60;0.40;;;;;;;7.36;100.00;98753.97;15315862;19;20793;-79
2023/01/07 01:45:11;;;;;;;2.13;0.40;;;;;;;7.40;100.00;98741.19;15300355;19;20026;-79
2023/01/07 01:50:41;;;;;;;0.28;0.22;;;;;;;7.51;100.00;98748.28;15297687;19;20083;-78
2023/01/07 01:56:12;;;;;;;0.30;0.30;;;;;;;7.54;100.00;98745.31;15296307;19;20007;-79
2023/01/07 02:01:38;;;;;;;0.20;0.20;;;;;;;7.55;100.00;98736.31;15303097;19;20418;-79
2023/01/07 02:07:10;;;;;;;0.32;0.32;;;;;;;7.61;100.00;98726.88;15308394;19;19999;-79
2023/01/07 02:12:53;;;;;;;0.40;0.40;;;;;;;7.61;100.00;98725.03;15305708;19;20014;-80
2023/01/07 02:18:32;;;;;;;0.40;0.40;;;;;;;7.55;100.00;98707.66;15293836;19;20834;-79
2023/01/07 02:24:32;;;;;;;0.57;0.57;;;;;;;7.49;100.00;98697.47;15302510;19;20015;-79
2023/01/07 02:30:42;;;;;;;0.43;0.40;;;;;;;7.45;100.00;98687.16;15298500;19;20031;-80
2023/01/07 02:36:30;;;;;;;0.98;0.50;;;;;;;7.36;100.00;98681.59;15298640;19;20015;-79
2023/01/07 02:42:04;;;;;;;0.30;0.30;;;;;;;7.30;100.00;98668.75;15295718;19;20375;-79
2023/01/07 02:47:34;;;;;;;0.32;0.30;;;;;;;7.23;100.00;98659.56;15289605;19;20046;-78
2023/01/07 02:53:01;;;;;;;0.30;0.30;;;;;;;7.14;100.00;98660.34;15289000;19;20014;-80
2023/01/07 02:58:50;;;;;;;0.98;0.35;;;;;;;7.09;100.00;98666.09;15294486;19;20450;-79
2023/01/07 03:04:51;;;;;;;0.63;0.40;;;;;;;7.06;100.00;98664.56;15286369;19;20477;-78
2023/01/07 03:10:27;;;;;;;0.40;0.40;;;;;;;7.04;100.00;98665.66;15295184;19;20022;-78
2023/01/07 03:15:56;;;;;;;0.30;0.30;;;;;;;6.94;100.00;98657.56;15293445;19;20025;-79
2023/01/07 03:21:23;;;;;;;0.40;0.40;;;;;;;6.93;100.00;98653.19;15292853;19;20110;-79
2023/01/07 03:26:55;;;;;;;0.30;0.30;;;;;;;6.92;100.00;98656.84;15301394;19;20066;-78
2023/01/07 03:32:25;;;;;;;0.30;0.30;;;;;;;6.89;100.00;98657.09;15305944;19;20347;-80
2023/01/07 03:37:51;;;;;;;0.30;0.30;;;;;;;6.86;100.00;98657.41;15309021;19;20036;-82
2023/01/07 03:43:21;;;;;;;0.55;0.30;;;;;;;6.87;100.00;98653.75;15299531;19;20011;-78
2023/01/07 03:48:47;;;;;;;0.37;0.30;;;;;;;6.93;100.00;98658.56;15306235;19;20414;-78
2023/01/07 03:54:12;;;;;;;0.10;0.10;;;;;;;6.99;100.00;98658.03;15303716;19;20587;-78
2023/01/07 03:59:39;;;;;;;0.20;0.20;;;;;;;7.07;100.00;98654.66;15306351;19;20385;-75
2023/01/07 04:05:05;;;;;;;1.00;0.30;;;;;;;7.13;100.00;98642.56;15294947;19;20488;-78
2023/01/07 04:10:31;;;;;;;0.38;0.30;;;;;;;7.22;100.00;98636.44;15315026;19;20736;-79
2023/01/07 04:15:59;;;;;;;0.20;0.20;;;;;;;7.24;100.00;98634.44;15308201;19;20343;-78
2023/01/07 04:21:26;;;;;;;0.35;0.30;;;;;;;7.28;100.00;98627.84;15315220;19;20026;-80
2023/01/07 04:26:51;;;;;;;0.93;0.60;;;;;;;7.30;100.00;98615.16;15318727;19;20014;-81
2023/01/07 04:32:18;;;;;;;1.80;0.30;;;;;;;7.29;100.00;98618.81;15295669;19;20236;-75
2023/01/07 04:37:43;;;;;;;0.30;0.30;;;;;;;7.28;100.00;98622.47;15294569;19;20010;-77
2023/01/07 04:43:09;;;;;;;2.33;0.22;;;;;;;7.26;100.00;98603.00;15296482;19;20101;-78
2023/01/07 04:48:36;;;;;;;0.90;0.30;;;;;;;7.22;100.00;98606.94;15296187;19;20102;-77
2023/01/07 04:54:02;;;;;;;0.20;0.20;;;;;;;7.21;100.00;98592.69;15288990;19;20015;-77
2023/01/07 04:59:28;;;;;;;0.30;0.20;;;;;;;7.18;100.00;98590.28;15183539;19;2004034;-77
2023/01/07 05:04:55;;;;;;;0.28;0.20;;;;;;;7.18;100.00;98592.13;15296986;19;20015;-77
2023/01/07 05:10:21;;;;;;;0.20;0.20;;;;;;;7.12;100.00;98589.97;15297489;19;20596;-77
2023/01/07 05:15:47;;;;;;;0.20;0.20;;;;;;;7.16;100.00;98580.69;15294926;19;20016;-78
2023/01/07 05:21:16;;;;;;;0.20;0.20;;;;;;;7.21;100.00;98586.50;15311748;19;20018;-77
2023/01/07 05:26:42;;;;;;;0.20;0.20;;;;;;;7.22;100.00;98582.84;15294358;19;20014;-77
2023/01/07 05:32:07;;;;;;;0.20;0.20;;;;;;;7.25;100.00;98593.25;15277622;19;20014;-78
2023/01/07 05:37:36;;;;;;;0.30;0.30;;;;;;;7.30;100.00;98585.69;15292071;19;20011;-79
2023/01/07 05:43:02;;;;;;;0.25;0.20;;;;;;;7.32;100.00;98581.03;15309933;19;20031;-81
2023/01/07 05:48:26;;;;;;;1.85;0.30;;;;;;;7.35;100.00;98583.41;15315693;19;20021;-79
2023/01/07 05:53:54;;;;;;;0.30;0.22;;;;;;;7.36;100.00;98582.44;15312119;19;20042;-78
2023/01/07 05:59:19;;;;;;;0.20;0.20;;;;;;;7.42;100.00;98573.00;15303674;19;20025;-78
2023/01/07 06:04:51;;;;;;;0.30;0.30;;;;;;;7.42;100.00;98561.44;15288106;19;20025;-79
2023/01/07 06:10:19;;;;;;;0.20;0.20;;;;;;;7.48;100.00;98558.19;15296258;19;20505;-78
2023/01/07 06:15:44;;;;;;;0.30;0.17;;;;;;;7.51;100.00;98556.09;15298625;19;20047;-79
2023/01/07 06:21:09;;;;;;;0.15;0.15;;;;;;;7.52;100.00;98546.22;15298799;19;20022;-78
2023/01/07 06:26:37;;;;;;;0.10;0.10;;;;;;;7.54;100.00;98547.75;15302731;19;20031;-79
2023/01/07 06:32:02;;;;;;;0.20;0.20;;;;;;;7.52;100.00;98547.09;15300352;19;20011;-77
2023/01/07 06:37:26;;;;;;;0.20;0.20;;;;;;;7.49;100.00;98536.63;15300340;19;20018;-79
2023/01/07 06:42:54;;;;;;;0.20;0.20;;;;;;;7.45;100.00;98537.03;15310675;19;20042;-79
2023/01/07 06:48:18;;;;;;;0.30;0.15;;;;;;;7.42;100.00;98540.00;15311183;19;20006;-78
2023/01/07 06:53:43;;;;;;;1.98;0.20;;;;;;;7.38;100.00;98540.25;15308355;19;20101;-79
2023/01/07 06:59:10;;;;;;;0.30;0.30;;;;;;;7.26;100.00;98541.34;15308486;19;20018;-79
2023/01/07 07:04:41;;;;;;;0.20;0.20;;;;;;;7.21;100.00;98546.31;15298639;19;20477;-77
2023/01/07 07:10:07;;;;;;;0.20;0.20;;;;;;;7.22;100.00;98545.31;15287638;19;20006;-76
2023/01/07 07:15:34;;;;;;;0.50;0.28;;;;;;;7.19;100.00;98548.25;15303269;19;20472;-78
2023/01/07 07:21:00;;;;;;;0.20;0.20;;;;;;;7.19;100.00;98561.66;15305465;19;20021;-78
2023/01/07 07:26:24;;;;;;;0.25;0.25;;;;;;;7.20;100.00;98563.34;15296862;19;20074;-78
2023/01/07 07:31:52;;;;;;;0.40;0.30;;;;;;;7.23;100.00;98552.38;15306914;19;20054;-79
2023/01/07 07:37:16;;;;;;;0.30;0.30;;;;;;;7.22;100.00;98551.50;15303283;19;20017;-79
2023/01/07 07:42:42;;;;;;;1.83;0.70;;;;;;;7.23;100.00;98549.69;15297782;19;20014;-78
2023/01/07 07:48:30;;;;;;;1.63;0.50;;;;;;;7.25;100.00;98555.75;15295506;19;20031;-79
2023/01/07 07:53:55;;;;;;;0.30;0.30;;;;;;;7.27;100.00;98542.22;15298644;19;20500;-78
2023/01/07 07:59:20;;;;;;;0.68;0.50;;;;;;;7.26;100.00;98541.34;15294871;19;20378;-78
2023/01/07 08:04:55;;;;;;;0.63;0.40;;;;;;;7.26;100.00;98549.41;15291710;19;20019;-78
2023/01/07 08:10:20;;;;;;;0.55;0.50;;;;;;;7.30;100.00;98552.66;15288461;19;21315;-78
2023/01/07 08:15:45;;;;;;;0.30;0.30;;;;;;;7.31;100.00;98544.50;15285210;19;20015;-80
2023/01/07 08:21:13;;;;;;;0.35;0.25;;;;;;;7.33;100.00;98550.56;15287186;19;20015;-78
2023/01/07 08:32:26;;;;;;;0.30;0.30;;;;;;;7.43;100.00;98534.47;15292236;19;20019;-78
2023/01/07 08:37:56;;;;;;;0.30;0.30;;;;;;;7.46;100.00;98539.56;15303664;19;20402;-78
2023/01/07 08:43:22;;;;;;;0.30;0.30;;;;;;;7.50;100.00;98534.78;15302033;19;20007;-78
2023/01/07 08:48:47;;;;;;;0.60;0.28;;;;;;;7.65;100.00;98529.84;15291060;19;20010;-77
2023/01/07 08:54:15;;;;;;;0.25;0.10;;;;;;;7.75;100.00;98529.88;15291454;19;20519;-77
2023/01/07 08:59:39;;;;;;;0.10;0.10;;;;;;;7.83;100.00;98530.00;15294729;19;20019;-77
2023/01/07 09:05:10;;;;;;;0.10;0.10;;;;;;;7.89;100.00;98524.09;15288925;19;20394;-77
2023/01/07 09:10:38;;;;;;;0.30;0.30;;;;;;;7.96;100.00;98535.09;15296933;19;20110;-78
2023/01/07 09:16:02;;;;;;;0.30;0.30;;;;;;;8.00;100.00;98533.81;15285784;19;20021;-77
2023/01/07 09:21:27;;;;;;;0.20;0.20;;;;;;;8.04;100.00;98523.66;15292643;19;20552;-78
2023/01/07 09:26:55;;;;;;;0.10;0.10;;;;;;;8.08;100.00;98522.38;15298034;19;20071;-78
2023/01/07 09:32:20;;;;;;;0.20;0.10;;;;;;;8.12;100.00;98529.97;15312403;19;20018;-78
2023/01/07 09:37:46;;;;;;;0.10;0.10;;;;;;;8.15;100.00;98513.59;15328982;19;20018;-77
2023/01/07 09:43:18;;;;;;;0.52;0.30;;;;;;;8.17;100.00;98511.63;15289127;19;20082;-77
2023/01/07 09:49:04;;;;;;;;;;;;;;;8.15;100.00;98518.13;15281065;19;20016;-77
2023/01/07 09:54:33;;;;;;;0.10;0.10;;;;;;;8.20;100.00;98506.97;15286727;19;19923;-76
2023/01/07 10:00:02;;;;;;;0.20;0.20;;;;;;;8.24;100.00;98506.53;15290983;19;20011;-79
2023/01/07 10:05:37;;;;;;;0.45;0.20;;;;;;;8.27;100.00;98500.03;15290525;19;20065;-77
2023/01/07 10:11:12;;;;;;;1.10;0.20;;;;;;;8.30;100.00;98492.53;15290221;19;20098;-77
2023/01/07 10:16:47;;;;;;;0.20;0.20;;;;;;;8.32;100.00;98484.34;15289542;19;20028;-78
2023/01/07 10:22:24;;;;;;;0.80;0.80;;;;;;;8.36;100.00;98491.09;15277316;19;20015;-77
2023/01/07 10:27:51;;;;;;;0.30;0.30;;;;;;;8.39;100.00;98457.75;15291785;19;20021;-77
2023/01/07 10:33:28;;;;;;;0.13;0.13;;;;;;;8.38;100.00;98456.06;15289277;19;20501;-78
2023/01/07 10:39:02;;;;;;;0.20;0.20;;;;;;;8.36;100.00;98439.25;15290417;19;20695;-77
2023/01/07 10:45:01;;;;;;;0.10;0.10;;;;;;;8.37;100.00;98432.91;15284253;19;20074;-77
2023/01/07 10:50:49;;;;;;;0.88;0.20;;;;;;;8.34;100.00;98426.00;15289537;19;20024;-78
2023/01/07 10:56:29;;;;;;;0.17;0.10;;;;;;;8.37;100.00;98419.47;15292884;19;21026;-78
2023/01/07 11:01:56;;;;;;;0.28;0.20;;;;;;;8.39;100.00;98417.50;15302433;19;20015;-78
2023/01/07 11:07:32;;;;;;;1.70;0.20;;;;;;;8.37;100.00;98395.31;15302650;19;20027;-78
2023/01/07 11:13:03;;;;;;;0.10;0.10;;;;;;;8.40;100.00;98389.66;15299051;19;20027;-78
2023/01/07 11:18:33;;;;;;;0.13;0.13;;;;;;;8.39;100.00;98385.28;15289553;19;20027;-79
2023/01/07 11:24:01;;;;;;;0.22;0.22;;;;;;;8.37;100.00;98379.22;15286487;19;20450;-78
2023/01/07 11:29:32;;;;;;;0.68;0.20;;;;;;;8.40;100.00;98381.59;15292983;19;20011;-79
2023/01/07 11:35:00;;;;;;;0.70;0.70;;;;;;;8.42;100.00;98371.53;15293096;19;20035;-79
2023/01/07 11:40:30;;;;;;;0.22;0.22;;;;;;;8.45;100.00;98356.00;15296454;19;20026;-78
2023/01/07 11:45:58;;;;;;;0.40;0.30;;;;;;;8.47;100.00;98337.91;15296148;19;20007;-79
2023/01/07 11:51:47;;;;;;;0.20;0.20;;;;;;;8.54;100.00;98335.47;15294044;19;20014;-78
2023/01/07 11:57:23;;;;;;;0.90;0.30;;;;;;;8.55;100.00;98323.75;15292467;19;20010;-78
2023/01/07 12:02:47;;;;;;;0.50;0.50;;;;;;;8.60;100.00;98318.78;15291839;19;20027;-79
2023/01/07 12:08:22;;;;;;;0.60;0.50;;;;;;;8.59;100.00;98311.72;15293802;19;20017;-78
2023/01/07 12:13:54;;;;;;;0.85;0.32;;;;;;;8.61;100.00;98300.81;15305619;19;20061;-79
2023/01/07 12:19:32;;;;;;;0.38;0.38;;;;;;;8.58;100.00;98293.06;15311260;19;20070;-79
2023/01/07 12:25:23;;;;;;;0.30;0.30;;;;;;;8.58;100.00;98285.84;15304609;19;20016;-79
2023/01/07 12:31:26;;;;;;;0.30;0.30;;;;;;;8.56;100.00;98269.03;15304620;19;20355;-79
2023/01/07 12:37:00;;;;;;;1.10;0.52;;;;;;;8.59;100.00;98252.63;15304150;19;20019;-79
2023/01/07 12:42:30;;;;;;;0.55;0.55;;;;;;;8.57;100.00;98249.25;15301669;19;20007;-78
2023/01/07 12:48:02;;;;;;;2.15;0.50;;;;;;;8.56;100.00;98234.13;15303336;19;20006;-79
2023/01/07 12:53:35;;;;;;;1.10;1.00;;;;;;;8.54;100.00;98227.25;15293838;19;20014;-79
2023/01/07 12:59:06;;;;;;;1.33;1.23;;;;;;;8.57;100.00;98210.81;15301003;19;20082;-78
2023/01/07 13:05:11;;;;;;;0.47;0.47;;;;;;;8.57;100.00;98205.47;15287469;19;20019;-81
2023/01/07 13:10:40;;;;;;;0.75;0.60;;;;;;;8.59;100.00;98190.00;15303879;19;20123;-81
2023/01/07 13:16:04;;;;;;;0.55;0.50;;;;;;;8.62;100.00;98185.19;15298918;19;20014;-81
2023/01/07 13:21:32;;;;;;;0.45;0.35;;;;;;;8.65;100.00;98173.31;15299648;19;20461;-79
2023/01/07 13:27:02;;;;;;;0.25;0.25;;;;;;;8.68;100.00;98169.44;15301056;19;20014;-79
2023/01/07 13:32:48;;;;;;;0.32;0.32;;;;;;;8.70;100.00;98167.47;15295390;19;20011;-78
2023/01/07 13:38:29;;;;;;;0.30;0.30;;;;;;;8.70;100.00;98159.41;15294378;19;20014;-78
2023/01/07 13:44:08;;;;;;;0.30;0.30;;;;;;;8.68;100.00;98156.88;15297577;19;20015;-79
2023/01/07 13:49:36;;;;;;;0.60;0.50;;;;;;;8.68;100.00;98150.66;15299815;19;20391;-79
2023/01/07 13:55:35;;;;;;;0.93;0.60;;;;;;;8.64;100.00;98150.13;15331392;19;20472;-80
2023/01/07 14:01:11;;;;;;;0.77;0.60;;;;;;;8.64;100.00;98150.94;15295582;19;20058;-79
2023/01/07 14:06:42;;;;;;;0.68;0.68;;;;;;;8.62;100.00;98147.59;15288532;19;20023;-79
2023/01/07 14:12:36;;;;;;;0.68;0.68;;;;;;;8.64;100.00;98139.38;15289175;19;20098;-78
2023/01/07 14:18:33;;;;;;;0.60;0.60;;;;;;;8.61;100.00;98137.88;15292785;19;20374;-77
2023/01/07 14:24:11;;;;;;;0.47;0.47;;;;;;;8.63;100.00;98149.28;15296091;19;20378;-78
2023/01/07 14:29:43;;;;;;;0.70;0.65;;;;;;;8.60;100.00;98144.22;15302762;19;20031;-78
2023/01/07 14:35:39;;;;;;;0.80;0.80;;;;;;;8.55;100.00;98140.31;15296735;19;20014;-77
2023/01/07 14:41:09;;;;;;;0.60;0.60;;;;;;;8.54;100.00;98150.19;15297456;19;20042;-77
2023/01/07 14:46:52;;;;;;;0.93;0.57;;;;;;;8.51;100.00;98134.44;15325381;19;20031;-78
2023/01/07 14:52:47;;;;;;;0.50;0.50;;;;;;;8.48;100.00;98126.69;15306119;19;20367;-78
2023/01/07 14:58:33;;;;;;;0.52;0.52;;;;;;;8.45;100.00;98126.94;15302044;19;20093;-79
2023/01/07 15:04:43;;;;;;;0.63;0.63;;;;;;;8.42;100.00;98128.09;15296199;19;20094;-77
2023/01/07 15:16:06;;;;;;;0.77;0.77;;;;;;;8.40;100.00;98099.75;15297151;19;20006;-80
2023/01/07 15:21:40;;;;;;;0.90;0.68;;;;;;;8.37;100.00;98100.88;14784719;19;9999820;-79
2023/01/07 15:27:13;;;;;;;0.60;0.60;;;;;;;8.35;100.00;98096.66;15294666;19;20028;-80
2023/01/07 15:32:47;;;;;;;0.70;0.70;;;;;;;8.33;100.00;98092.28;15292369;19;20018;-79
2023/01/07 15:38:14;;;;;;;0.70;0.70;;;;;;;8.33;100.00;98081.56;15290091;19;20827;-81
2023/01/07 15:43:46;;;;;;;0.60;0.60;;;;;;;8.30;100.00;98081.84;15277208;19;20631;-78
2023/01/07 15:49:31;;;;;;;0.60;0.60;;;;;;;8.29;100.00;98076.66;15307850;19;20018;-79
2023/01/07 15:54:56;;;;;;;0.70;0.70;;;;;;;8.29;100.00;98082.84;15301181;19;20007;-80
2023/01/07 16:00:24;;;;;;;0.55;0.55;;;;;;;8.27;100.00;98074.13;15308302;19;20077;-80
2023/01/07 16:05:58;;;;;;;0.60;0.60;;;;;;;8.27;100.00;98068.78;15296560;19;20644;-77
2023/01/07 16:11:26;;;;;;;0.57;0.57;;;;;;;8.25;100.00;98067.22;15302657;19;20018;-78
2023/01/07 16:16:53;;;;;;;0.70;0.70;;;;;;;8.25;100.00;98068.09;15291197;19;20631;-80
2023/01/07 16:22:21;;;;;;;0.70;0.60;;;;;;;8.22;100.00;98060.34;15294602;19;20384;-78
2023/01/07 16:27:47;;;;;;;1.50;1.40;;;;;;;8.22;100.00;98070.25;15294374;19;20481;-77
2023/01/07 16:33:19;;;;;;;2.25;1.20;;;;;;;8.21;100.00;98068.53;15293286;19;20354;-78
2023/01/07 16:38:44;;;;;;;;;;;;;;;8.14;100.00;98058.41;15293766;19;20077;-78
2023/01/07 16:44:58;;;;;;;0.80;0.80;;;;;;;8.15;100.00;98061.97;15291491;19;19925;-78
2023/01/07 16:50:44;;;;;;;0.80;0.80;;;;;;;8.16;100.00;98052.91;15286015;19;20025;-77
2023/01/07 16:56:15;;;;;;;0.95;0.90;;;;;;;8.14;100.00;98053.06;15293712;19;20011;-77
2023/01/07 17:01:42;;;;;;;0.70;0.70;;;;;;;8.12;100.00;98033.56;15292469;19;20019;-77
2023/01/07 17:07:21;;;;;;;0.90;0.90;;;;;;;8.12;100.00;98028.22;15296033;19;20011;-78
2023/01/07 17:12:48;;;;;;;1.67;0.70;;;;;;;8.12;100.00;98024.69;15295564;19;20010;-80
2023/01/07 17:18:29;;;;;;;1.48;1.10;;;;;;;8.11;100.00;98007.78;15293390;19;20014;-78
2023/01/07 17:23:57;;;;;;;0.85;0.85;;;;;;;8.12;100.00;98011.28;15290755;19;20017;-78
2023/01/07 17:29:21;;;;;;;0.80;0.80;;;;;;;8.11;100.00;98002.41;15304142;19;20368;-78
2023/01/07 17:34:45;;;;;;;1.15;0.82;;;;;;;8.12;100.00;98012.09;15301362;19;20023;-79
2023/01/07 17:40:14;;;;;;;1.30;0.80;;;;;;;8.11;100.00;98004.22;15302616;19;20011;-79
2023/01/07 17:45:40;;;;;;;0.90;0.90;;;;;;;8.10;100.00;97995.34;15303885;19;20015;-79
2023/01/07 17:51:07;;;;;;;1.10;1.00;;;;;;;8.08;100.00;97999.16;15301021;19;20010;-78
2023/01/07 17:56:34;;;;;;;1.52;1.38;;;;;;;8.09;100.00;97995.50;15299882;19;20026;-79
2023/01/07 18:01:59;;;;;;;1.67;1.30;;;;;;;8.08;100.00;97988.44;15306373;19;20011;-78
2023/01/07 18:07:24;;;;;;;1.52;1.40;;;;;;;8.05;100.00;97970.81;15323963;19;20018;-78
2023/01/07 18:12:52;;;;;;;1.50;1.40;;;;;;;8.02;100.00;97980.03;15326873;19;20023;-79
2023/01/07 18:18:16;;;;;;;1.70;1.20;;;;;;;7.99;100.00;97977.66;15304101;19;20474;-78
2023/01/07 18:23:41;;;;;;;0.90;0.90;;;;;;;7.96;100.00;97967.22;15299741;19;20019;-78
2023/01/07 18:29:09;;;;;;;1.20;1.10;;;;;;;7.92;100.00;97971.22;15303163;19;20081;-78
2023/01/07 18:34:34;;;;;;;1.40;1.30;;;;;;;7.86;100.00;97963.78;15298236;19;20379;-78
2023/01/07 18:40:01;;;;;;;1.30;1.20;;;;;;;7.80;100.00;97970.63;15301582;19;20031;-78
2023/01/07 18:45:29;;;;;;;1.80;1.70;;;;;;;7.74;100.00;97960.53;15296651;19;20569;-79
2023/01/07 18:50:56;;;;;;;1.80;1.70;;;;;;;7.64;100.00;97965.13;15304008;19;20022;-78
2023/01/07 18:56:21;;;;;;;2.47;2.28;;;;;;;7.52;100.00;97959.16;15292128;19;20015;-78
2023/01/07 19:01:51;;;;;;;1.55;1.45;;;;;;;7.46;100.00;97955.25;15298192;19;20015;-79
2023/01/07 19:07:16;;;;;;;1.30;1.20;;;;;;;7.36;100.00;97939.22;15296591;19;20546;-78
2023/01/07 19:12:41;;;;;;;1.88;1.20;;;;;;;7.29;100.00;97935.47;15294469;19;20015;-83
2023/01/07 19:18:09;;;;;;;1.02;0.95;;;;;;;7.21;100.00;97940.78;15291738;19;20014;-82
2023/01/07 19:23:34;;;;;;;1.00;1.00;;;;;;;7.13;100.00;97940.66;15292426;19;20484;-82
2023/01/07 19:28:58;;;;;;;2.47;1.20;;;;;;;7.04;100.00;97942.44;15286888;19;20025;-82
2023/01/07 19:34:26;;;;;;;1.67;1.45;;;;;;;6.99;100.00;97934.84;15291642;19;20021;-82
2023/01/07 19:39:50;;;;;;;1.50;1.40;;;;;;;6.93;100.00;97938.13;15291332;19;20086;-81
2023/01/07 19:45:17;;;;;;;1.50;1.40;;;;;;;6.83;100.00;97932.81;15292097;19;20022;-82
2023/01/07 19:50:44;;;;;;;1.40;1.30;;;;;;;6.72;100.00;97924.97;15296923;19;20092;-82
2023/01/07 19:56:11;;;;;;;2.60;2.40;;;;;;;6.65;100.00;97923.91;15292849;19;20025;-82
2023/01/07 20:01:37;;;;;;;2.45;2.25;;;;;;;6.56;100.00;97918.47;15286881;19;20018;-80
2023/01/07 20:07:05;;;;;;;1.50;1.40;;;;;;;6.48;100.00;97905.81;15300991;19;20015;-80
2023/01/07 20:12:29;;;;;;;1.50;1.40;;;;;;;6.38;100.00;97914.84;15314898;19;20038;-80
2023/01/07 20:17:54;;;;;;;1.60;1.50;;;;;;;6.40;100.00;97897.69;15319378;19;20018;-80
2023/01/07 20:23:22;;;;;;;1.80;1.70;;;;;;;6.38;100.00;97905.00;15292431;19;20026;-79
2023/01/07 20:28:48;;;;;;;1.80;1.70;;;;;;;6.32;100.00;97900.25;15292612;19;20380;-79
2023/01/07 20:34:12;;;;;;;1.80;1.70;;;;;;;6.24;100.00;97882.25;15297840;19;20022;-77
2023/01/07 20:39:40;;;;;;;1.60;1.50;;;;;;;6.15;100.00;97884.00;15294145;19;20018;-77
2023/01/07 20:45:05;;;;;;;1.77;1.67;;;;;;;6.10;100.00;97880.91;15303112;19;20657;-78
2023/01/07 20:50:34;;;;;;;1.70;1.60;;;;;;;6.06;100.00;97873.31;15304461;19;20014;-78
2023/01/07 20:56:03;;;;;;;1.73;1.63;;;;;;;5.99;100.00;97852.53;15307631;19;20039;-78
2023/01/07 21:01:29;;;;;;;1.90;1.80;;;;;;;5.93;100.00;97849.56;15294883;19;20412;-78
2023/01/07 21:07:00;;;;;;;1.80;1.70;;;;;;;5.89;100.00;97840.13;15286352;19;20026;-78
2023/01/07 21:12:27;;;;;;;1.90;1.80;;;;;;;5.85;100.00;97845.75;15291456;19;20051;-78
2023/01/07 21:17:52;;;;;;;2.10;1.90;;;;;;;5.86;100.00;97842.09;15292013;19;20010;-77
2023/01/07 21:23:38;;;;;;;1.92;1.83;;;;;;;5.95;100.00;97851.09;15290746;19;20023;-78
2023/01/07 21:29:05;;;;;;;2.10;1.90;;;;;;;6.07;100.00;97842.91;15299704;19;20082;-78
2023/01/07 21:34:33;;;;;;;1.92;1.80;;;;;;;6.08;100.00;97829.38;15314510;19;20014;-78
2023/01/07 21:39:58;;;;;;;1.88;1.77;;;;;;;6.07;100.00;97825.03;15272754;19;20074;-78
2023/01/07 21:45:25;;;;;;;1.75;1.65;;;;;;;6.07;100.00;97818.84;15292452;19;20013;-77
2023/01/07 21:50:50;;;;;;;1.70;1.60;;;;;;;6.06;100.00;97826.00;15293345;19;20021;-80
2023/01/07 21:56:17;;;;;;;2.15;1.95;;;;;;;6.02;100.00;97835.34;15312134;19;20098;-78
2023/01/07 22:01:45;;;;;;;1.80;1.70;;;;;;;6.02;100.00;97851.38;15309982;19;20033;-78
2023/01/07 22:07:15;;;;;;;1.90;1.80;;;;;;;6.02;100.00;97832.66;15328340;19;20041;-80
2023/01/07 22:12:40;;;;;;;1.90;1.80;;;;;;;6.00;100.00;97842.66;15314117;19;20010;-81
2023/01/07 22:18:07;;;;;;;2.50;1.88;;;;;;;5.97;100.00;97838.41;15329654;19;20015;-80
2023/01/07 22:23:33;;;;;;;2.05;1.80;;;;;;;5.96;100.00;97836.72;15328526;19;20014;-80
2023/01/07 22:29:00;;;;;;;2.53;1.60;;;;;;;5.96;100.00;97847.44;15354135;19;20006;-81
2023/01/07 22:34:28;;;;;;;2.17;1.70;;;;;;;5.94;100.00;97845.91;15320763;19;20018;-80
2023/01/07 22:39:56;;;;;;;3.97;1.88;;;;;;;5.92;100.00;97845.19;15310880;19;20058;-79
2023/01/07 22:45:25;;;;;;;1.92;1.70;;;;;;;5.90;100.00;97847.16;15301831;19;20003;-80
2023/01/07 22:50:53;;;;;;;1.80;1.70;;;;;;;5.89;100.00;97837.47;15323503;19;20015;-80
2023/01/07 22:56:19;;;;;;;2.10;1.80;;;;;;;5.83;100.00;97830.88;15299927;19;20281;-80
2023/01/07 23:01:38;;;;;;;1.90;1.80;;;;;;;5.80;100.00;97828.47;15292049;19;20045;-81
2023/01/07 23:07:13;;;;;;;1.98;1.73;;;;;;;5.73;100.00;97804.16;15291857;19;20422;-81
2023/01/07 23:12:38;;;;;;;3.00;1.70;;;;;;;5.68;100.00;97801.09;15291074;19;20082;-82
2023/01/07 23:18:04;;;;;;;1.80;1.70;;;;;;;5.64;100.00;97795.22;15284335;19;20042;-80
2023/01/07 23:23:32;;;;;;;2.03;1.90;;;;;;;5.59;100.00;97767.22;15292605;19;20010;-79
2023/01/07 23:28:57;;;;;;;1.83;1.73;;;;;;;5.51;100.00;97750.09;15298814;19;20019;-82
2023/01/07 23:34:21;;;;;;;1.80;1.60;;;;;;;5.48;100.00;97739.69;15288923;19;20486;-81
2023/01/07 23:39:50;;;;;;;2.00;1.80;;;;;;;5.47;100.00;97735.31;15286393;19;20019;-80
2023/01/07 23:45:14;;;;;;;1.95;1.65;;;;;;;5.48;100.00;97737.00;15285690;19;20481;-79
2023/01/07 23:50:39;;;;;;;1.95;1.65;;;;;;;5.49;100.00;97729.84;15282899;19;20379;-81
2023/01/07 23:56:07;;;;;;;1.75;1.52;;;;;;;5.48;100.00;97729.00;15291251;19;20014;-81
